sensor_id;sensor_type;location;lat;lon;timestamp;pressure;altitude;pressure_sealevel;temperature;humidity
43217;BME280;71549;42.686;23.300;2023-08-30T00:00:55;93806.94;;;28.47;30.67
43217;BME280;71549;42.686;23.300;2023-08-30T00:02:55;93857.59;;;28.75;30.07
43217;BME280;71549;42.686;23.300;2023-08-30T00:04:59;93837.88;;;28.67;30.58
43217;BME280;71549;42.686;23.300;2023-08-30T00:07:00;93835.56;;;28.62;30.94
43217;BME280;71549;42.686;23.300;2023-08-30T00:09:00;93793.84;;;28.34;31.64
43217;BME280;71549;42.686;23.300;2023-08-30T00:11:02;93835.56;;;28.62;30.66
43217;BME280;71549;42.686;23.300;2023-08-30T00:13:04;93843.31;;;28.67;30.77
43217;BME280;71549;42.686;23.300;2023-08-30T00:15:05;93774.59;;;28.14;30.94
43217;BME280;71549;42.686;23.300;2023-08-30T00:17:06;93785.84;;;28.16;30.81
43217;BME280;71549;42.686;23.300;2023-08-30T00:19:06;93856.94;;;28.67;30.07
43217;BME280;71549;42.686;23.300;2023-08-30T00:21:06;93810.50;;;28.40;29.83
43217;BME280;71549;42.686;23.300;2023-08-30T00:23:07;93816.31;;;28.42;30.37
43217;BME280;71549;42.686;23.300;2023-08-30T00:25:07;93857.31;;;28.65;29.76
43217;BME280;71549;42.686;23.300;2023-08-30T00:27:08;93788.50;;;28.23;29.50
43217;BME280;71549;42.686;23.300;2023-08-30T00:29:08;93853.41;;;28.67;30.07
43217;BME280;71549;42.686;23.300;2023-08-30T00:31:09;93834.44;;;28.59;30.16
43217;BME280;71549;42.686;23.300;2023-08-30T00:33:09;93793.47;;;28.32;30.12
43217;BME280;71549;42.686;23.300;2023-08-30T00:35:10;93822.44;;;28.53;29.93
43217;BME280;71549;42.686;23.300;2023-08-30T00:37:10;93810.47;;;28.43;30.10
43217;BME280;71549;42.686;23.300;2023-08-30T00:39:11;93829.75;;;28.60;30.23
43217;BME280;71549;42.686;23.300;2023-08-30T00:41:11;93831.38;;;28.54;30.57
43217;BME280;71549;42.686;23.300;2023-08-30T00:43:11;93831.00;;;28.48;30.94
43217;BME280;71549;42.686;23.300;2023-08-30T00:45:12;93731.81;;;27.77;30.61
43217;BME280;71549;42.686;23.300;2023-08-30T00:47:15;93830.63;;;28.53;30.78
43217;BME280;71549;42.686;23.300;2023-08-30T00:49:16;93810.13;;;28.38;30.53
43217;BME280;71549;42.686;23.300;2023-08-30T00:51:16;93825.25;;;28.42;30.17
43217;BME280;71549;42.686;23.300;2023-08-30T00:53:17;93840.75;;;28.49;29.92
43217;BME280;71549;42.686;23.300;2023-08-30T00:55:17;93847.34;;;28.52;29.55
43217;BME280;71549;42.686;23.300;2023-08-30T00:57:18;93840.78;;;28.42;29.55
43217;BME280;71549;42.686;23.300;2023-08-30T00:59:19;93864.78;;;28.58;30.01
43217;BME280;71549;42.686;23.300;2023-08-30T01:01:19;93867.13;;;28.56;30.12
43217;BME280;71549;42.686;23.300;2023-08-30T01:03:27;93857.00;;;28.56;29.86
43217;BME280;71549;42.686;23.300;2023-08-30T01:05:28;93834.97;;;28.43;30.34
43217;BME280;71549;42.686;23.300;2023-08-30T01:07:29;93833.47;;;28.35;30.72
43217;BME280;71549;42.686;23.300;2023-08-30T01:09:31;93857.47;;;28.48;30.36
43217;BME280;71549;42.686;23.300;2023-08-30T01:15:54;93728.84;;;27.60;29.90
43217;BME280;71549;42.686;23.300;2023-08-30T01:17:55;93847.81;;;28.39;29.51
43217;BME280;71549;42.686;23.300;2023-08-30T01:20:01;93848.28;;;28.34;29.71
43217;BME280;71549;42.686;23.300;2023-08-30T01:24:25;93853.34;;;28.32;30.15
43217;BME280;71549;42.686;23.300;2023-08-30T01:28:35;93881.19;;;28.47;29.85
43217;BME280;71549;42.686;23.300;2023-08-30T01:30:40;93835.91;;;28.26;29.80
43217;BME280;71549;42.686;23.300;2023-08-30T01:32:42;93778.31;;;27.93;29.75
43217;BME280;71549;42.686;23.300;2023-08-30T01:34:43;93864.81;;;28.54;29.36
43217;BME280;71549;42.686;23.300;2023-08-30T01:36:47;93727.28;;;27.59;29.68
43217;BME280;71549;42.686;23.300;2023-08-30T01:38:47;93859.78;;;28.53;29.44
43217;BME280;71549;42.686;23.300;2023-08-30T01:40:50;93864.41;;;28.56;28.93
43217;BME280;71549;42.686;23.300;2023-08-30T01:42:51;93860.94;;;28.48;29.04
43217;BME280;71549;42.686;23.300;2023-08-30T01:44:53;93846.28;;;28.38;28.82
43217;BME280;71549;42.686;23.300;2023-08-30T01:46:57;93872.94;;;28.58;28.82
43217;BME280;71549;42.686;23.300;2023-08-30T01:48:59;93784.47;;;27.97;29.19
43217;BME280;71549;42.686;23.300;2023-08-30T01:51:00;93829.66;;;28.29;28.99
43217;BME280;71549;42.686;23.300;2023-08-30T01:53:02;93860.16;;;28.55;29.04
43217;BME280;71549;42.686;23.300;2023-08-30T01:55:04;93875.69;;;28.54;28.97
43217;BME280;71549;42.686;23.300;2023-08-30T01:57:06;93853.19;;;28.50;28.74
43217;BME280;71549;42.686;23.300;2023-08-30T01:59:07;93846.97;;;28.50;28.60
43217;BME280;71549;42.686;23.300;2023-08-30T02:01:08;93856.28;;;28.52;29.16
43217;BME280;71549;42.686;23.300;2023-08-30T02:05:10;93843.41;;;28.56;28.99
43217;BME280;71549;42.686;23.300;2023-08-30T02:07:25;93849.94;;;28.62;28.95
43217;BME280;71549;42.686;23.300;2023-08-30T02:11:39;93798.09;;;28.35;29.32
43217;BME280;71549;42.686;23.300;2023-08-30T02:13:41;93840.22;;;28.65;29.69
43217;BME280;71549;42.686;23.300;2023-08-30T02:15:43;93840.59;;;28.67;29.50
43217;BME280;71549;42.686;23.300;2023-08-30T02:17:45;93853.31;;;28.77;29.53
43217;BME280;71549;42.686;23.300;2023-08-30T02:19:47;93855.25;;;28.77;29.58
43217;BME280;71549;42.686;23.300;2023-08-30T02:21:47;93862.63;;;28.80;29.71
43217;BME280;71549;42.686;23.300;2023-08-30T02:23:51;93861.00;;;28.86;29.88
43217;BME280;71549;42.686;23.300;2023-08-30T02:25:54;93864.47;;;28.87;29.79
43217;BME280;71549;42.686;23.300;2023-08-30T02:27:55;93859.03;;;28.87;30.48
43217;BME280;71549;42.686;23.300;2023-08-30T02:29:56;93861.00;;;28.86;30.16
43217;BME280;71549;42.686;23.300;2023-08-30T02:31:56;93814.56;;;28.62;30.34
43217;BME280;71549;42.686;23.300;2023-08-30T02:33:57;93816.53;;;28.58;30.44
43217;BME280;71549;42.686;23.300;2023-08-30T02:35:57;93858.63;;;28.88;30.42
43217;BME280;71549;42.686;23.300;2023-08-30T02:37:57;93853.56;;;28.90;29.79
43217;BME280;71549;42.686;23.300;2023-08-30T02:39:58;93824.19;;;28.71;29.81
43217;BME280;71549;42.686;23.300;2023-08-30T02:41:58;93851.19;;;28.92;29.87
43217;BME280;71549;42.686;23.300;2023-08-30T02:43:59;93821.44;;;28.74;29.73
43217;BME280;71549;42.686;23.300;2023-08-30T02:46:00;93841.53;;;28.88;29.82
43217;BME280;71549;42.686;23.300;2023-08-30T02:48:02;93828.75;;;28.81;29.46
43217;BME280;71549;42.686;23.300;2023-08-30T02:50:02;93780.47;;;28.47;29.60
43217;BME280;71549;42.686;23.300;2023-08-30T02:52:03;93846.88;;;28.95;29.99
43217;BME280;71549;42.686;23.300;2023-08-30T02:54:03;93767.31;;;28.42;29.79
43217;BME280;71549;42.686;23.300;2023-08-30T02:56:05;93846.09;;;28.94;29.76
43217;BME280;71549;42.686;23.300;2023-08-30T02:58:05;93823.63;;;28.87;30.32
43217;BME280;71549;42.686;23.300;2023-08-30T03:00:06;93803.94;;;28.75;30.18
43217;BME280;71549;42.686;23.300;2023-08-30T03:02:07;93833.25;;;28.95;30.17
43217;BME280;71549;42.686;23.300;2023-08-30T03:04:07;93835.22;;;28.94;30.08
43217;BME280;71549;42.686;23.300;2023-08-30T03:06:08;93845.34;;;28.94;30.21
43217;BME280;71549;42.686;23.300;2023-08-30T03:08:09;93846.88;;;28.95;29.94
43217;BME280;71549;42.686;23.300;2023-08-30T03:10:11;93811.38;;;28.71;29.90
43217;BME280;71549;42.686;23.300;2023-08-30T03:12:14;93844.94;;;28.95;30.18
43217;BME280;71549;42.686;23.300;2023-08-30T03:14:14;93832.63;;;28.83;29.86
43217;BME280;71549;42.686;23.300;2023-08-30T03:16:17;93783.22;;;28.47;30.56
43217;BME280;71549;42.686;23.300;2023-08-30T03:18:17;93818.34;;;28.72;30.19
43217;BME280;71549;42.686;23.300;2023-08-30T03:20:17;93810.28;;;28.65;30.22
43217;BME280;71549;42.686;23.300;2023-08-30T03:22:18;93852.31;;;28.95;30.42
43217;BME280;71549;42.686;23.300;2023-08-30T03:24:18;93825.66;;;28.79;30.36
43217;BME280;71549;42.686;23.300;2023-08-30T03:26:20;93773.09;;;28.51;30.53
43217;BME280;71549;42.686;23.300;2023-08-30T03:28:21;93765.31;;;28.50;30.02
43217;BME280;71549;42.686;23.300;2023-08-30T03:30:23;93832.50;;;28.94;30.22
43217;BME280;71549;42.686;23.300;2023-08-30T03:32:23;93831.72;;;28.94;29.93
43217;BME280;71549;42.686;23.300;2023-08-30T03:34:24;93827.03;;;28.94;30.20
43217;BME280;71549;42.686;23.300;2023-08-30T03:36:25;93811.63;;;28.80;30.02
43217;BME280;71549;42.686;23.300;2023-08-30T03:38:26;93825.09;;;28.95;29.86
43217;BME280;71549;42.686;23.300;2023-08-30T03:40:26;93825.88;;;28.95;29.92
43217;BME280;71549;42.686;23.300;2023-08-30T03:42:27;93791.50;;;28.71;29.99
43217;BME280;71549;42.686;23.300;2023-08-30T03:44:29;93818.88;;;28.94;30.19
43217;BME280;71549;42.686;23.300;2023-08-30T03:46:29;93765.63;;;28.59;30.12
43217;BME280;71549;42.686;23.300;2023-08-30T03:48:30;93790.31;;;28.75;30.25
43217;BME280;71549;42.686;23.300;2023-08-30T03:50:32;93825.88;;;28.95;30.17
43217;BME280;71549;42.686;23.300;2023-08-30T03:52:33;93832.50;;;28.94;30.43
43217;BME280;71549;42.686;23.300;2023-08-30T03:54:33;93838.69;;;28.95;30.04
43217;BME280;71549;42.686;23.300;2023-08-30T03:56:34;93846.88;;;28.95;29.94
43217;BME280;71549;42.686;23.300;2023-08-30T03:58:34;93822.84;;;28.86;30.25
43217;BME280;71549;42.686;23.300;2023-08-30T04:00:39;93853.88;;;28.96;30.20
43217;BME280;71549;42.686;23.300;2023-08-30T04:02:39;93847.34;;;28.90;30.27
43217;BME280;71549;42.686;23.300;2023-08-30T04:04:40;93813.44;;;28.60;29.92
43217;BME280;71549;42.686;23.300;2023-08-30T04:06:41;93864.00;;;28.95;30.25
43217;BME280;71549;42.686;23.300;2023-08-30T04:08:43;93860.50;;;28.95;30.32
43217;BME280;71549;42.686;23.300;2023-08-30T04:10:45;93847.69;;;28.92;30.34
43217;BME280;71549;42.686;23.300;2023-08-30T04:12:47;93825.59;;;28.86;30.06
43217;BME280;71549;42.686;23.300;2023-08-30T04:14:49;93821.72;;;28.83;29.89
43217;BME280;71549;42.686;23.300;2023-08-30T04:16:57;93855.47;;;28.93;30.12
43217;BME280;71549;42.686;23.300;2023-08-30T04:18:58;93865.53;;;28.96;29.99
43217;BME280;71549;42.686;23.300;2023-08-30T04:20:58;93853.59;;;28.87;30.03
43217;BME280;71549;42.686;23.300;2023-08-30T04:23:00;93843.19;;;28.78;30.12
43217;BME280;71549;42.686;23.300;2023-08-30T04:25:05;93865.19;;;28.94;29.81
43217;BME280;71549;42.686;23.300;2023-08-30T04:27:05;93878.00;;;28.97;29.96
43217;BME280;71549;42.686;23.300;2023-08-30T04:29:07;93878.03;;;28.94;29.86
43217;BME280;71549;42.686;23.300;2023-08-30T04:31:07;93888.91;;;28.97;30.10
43217;BME280;71549;42.686;23.300;2023-08-30T04:33:08;93878.94;;;28.83;30.09
43217;BME280;71549;42.686;23.300;2023-08-30T04:35:09;93906.78;;;28.98;30.18
43217;BME280;71549;42.686;23.300;2023-08-30T04:37:09;93887.53;;;28.78;30.26
43217;BME280;71549;42.686;23.300;2023-08-30T04:39:10;93931.69;;;28.97;30.04
43217;BME280;71549;42.686;23.300;2023-08-30T04:41:11;93904.22;;;28.80;30.47
43217;BME280;71549;42.686;23.300;2023-08-30T04:43:12;93919.69;;;28.91;30.19
43217;BME280;71549;42.686;23.300;2023-08-30T04:45:19;93924.34;;;28.94;30.20
43217;BME280;71549;42.686;23.300;2023-08-30T04:47:22;93884.91;;;28.68;30.10
43217;BME280;71549;42.686;23.300;2023-08-30T04:49:23;93915.06;;;28.88;30.17
43217;BME280;71549;42.686;23.300;2023-08-30T04:51:26;93925.88;;;28.95;30.10
43217;BME280;71549;42.686;23.300;2023-08-30T04:53:31;93927.84;;;28.94;30.31
43217;BME280;71549;42.686;23.300;2023-08-30T04:55:32;93897.66;;;28.78;30.18
43217;BME280;71549;42.686;23.300;2023-08-30T04:57:32;93898.81;;;28.77;30.33
43217;BME280;71549;42.686;23.300;2023-08-30T04:59:33;93906.88;;;28.91;30.26
43217;BME280;71549;42.686;23.300;2023-08-30T05:01:33;93824.28;;;28.22;30.62
43217;BME280;71549;42.686;23.300;2023-08-30T05:03:33;93907.81;;;28.74;30.69
43217;BME280;71549;42.686;23.300;2023-08-30T05:05:34;93733.94;;;27.55;30.39
43217;BME280;71549;42.686;23.300;2023-08-30T05:07:35;93915.50;;;28.82;30.42
43217;BME280;71549;42.686;23.300;2023-08-30T05:09:37;93910.06;;;28.79;30.71
43217;BME280;71549;42.686;23.300;2023-08-30T05:11:40;93769.03;;;27.83;30.44
43217;BME280;71549;42.686;23.300;2023-08-30T05:13:41;93912.78;;;28.82;30.30
43217;BME280;71549;42.686;23.300;2023-08-30T05:15:42;93906.94;;;28.84;30.30
43217;BME280;71549;42.686;23.300;2023-08-30T05:17:44;93903.00;;;28.85;30.21
43217;BME280;71549;42.686;23.300;2023-08-30T05:19:45;93888.78;;;28.70;30.63
43217;BME280;71549;42.686;23.300;2023-08-30T05:21:46;93911.19;;;28.85;30.65
43217;BME280;71549;42.686;23.300;2023-08-30T05:23:46;93876.06;;;28.56;30.32
43217;BME280;71549;42.686;23.300;2023-08-30T05:25:48;93904.63;;;28.79;30.62
43217;BME280;71549;42.686;23.300;2023-08-30T05:27:48;93916.63;;;28.85;30.39
43217;BME280;71549;42.686;23.300;2023-08-30T05:29:50;93881.09;;;28.61;30.79
43217;BME280;71549;42.686;23.300;2023-08-30T05:31:50;93906.31;;;28.69;30.64
43217;BME280;71549;42.686;23.300;2023-08-30T05:33:50;93829.78;;;28.15;30.90
43217;BME280;71549;42.686;23.300;2023-08-30T05:35:51;93917.56;;;28.71;30.64
43217;BME280;71549;42.686;23.300;2023-08-30T05:37:52;93893.94;;;28.61;30.30
43217;BME280;71549;42.686;23.300;2023-08-30T05:39:56;93896.94;;;28.70;30.33
43217;BME280;71549;42.686;23.300;2023-08-30T05:41:57;93918.97;;;28.83;30.37
43217;BME280;71549;42.686;23.300;2023-08-30T05:43:57;93888.38;;;28.72;30.77
43217;BME280;71549;42.686;23.300;2023-08-30T05:45:58;93916.56;;;28.92;31.01
43217;BME280;71549;42.686;23.300;2023-08-30T05:48:03;93898.03;;;28.80;30.66
43217;BME280;71549;42.686;23.300;2023-08-30T05:50:03;93910.34;;;28.92;31.10
43217;BME280;71549;42.686;23.300;2023-08-30T05:52:04;93874.78;;;28.68;31.02
43217;BME280;71549;42.686;23.300;2023-08-30T05:54:05;93891.75;;;28.83;30.87
43217;BME280;71549;42.686;23.300;2023-08-30T05:56:05;93892.13;;;28.85;30.62
43217;BME280;71549;42.686;23.300;2023-08-30T05:58:05;93898.31;;;28.89;30.42
43217;BME280;71549;42.686;23.300;2023-08-30T06:00:06;93921.09;;;29.06;30.80
43217;BME280;71549;42.686;23.300;2023-08-30T06:02:08;93920.69;;;29.08;30.50
43217;BME280;71549;42.686;23.300;2023-08-30T06:04:10;93922.22;;;29.09;30.33
43217;BME280;71549;42.686;23.300;2023-08-30T06:06:10;93917.19;;;29.11;30.30
43217;BME280;71549;42.686;23.300;2023-08-30T06:08:11;93846.09;;;28.60;30.36
43217;BME280;71549;42.686;23.300;2023-08-30T06:10:12;93913.66;;;29.14;30.69
43217;BME280;71549;42.686;23.300;2023-08-30T06:12:13;93892.34;;;29.01;30.72
43217;BME280;71549;42.686;23.300;2023-08-30T06:14:13;93904.72;;;29.10;30.62
43217;BME280;71549;42.686;23.300;2023-08-30T06:16:13;93881.53;;;28.94;30.24
43217;BME280;71549;42.686;23.300;2023-08-30T06:18:14;93900.78;;;29.14;30.74
43217;BME280;71549;42.686;23.300;2023-08-30T06:20:14;93910.81;;;29.21;30.33
43217;BME280;71549;42.686;23.300;2023-08-30T06:22:16;93909.66;;;29.22;30.27
43217;BME280;71549;42.686;23.300;2023-08-30T06:24:16;93915.47;;;29.24;30.31
43217;BME280;71549;42.686;23.300;2023-08-30T06:26:17;93924.78;;;29.27;30.74
43217;BME280;71549;42.686;23.300;2023-08-30T06:28:17;93918.94;;;29.28;30.59
43217;BME280;71549;42.686;23.300;2023-08-30T06:30:18;93921.66;;;29.28;30.55
43217;BME280;71549;42.686;23.300;2023-08-30T06:32:18;93895.00;;;29.05;30.67
43217;BME280;71549;42.686;23.300;2023-08-30T06:34:18;93927.09;;;29.28;30.54
43217;BME280;71549;42.686;23.300;2023-08-30T06:36:19;93820.09;;;28.55;30.49
43217;BME280;71549;42.686;23.300;2023-08-30T06:38:22;93885.31;;;29.04;30.32
43217;BME280;71549;42.686;23.300;2023-08-30T06:40:22;93910.84;;;29.17;30.69
43217;BME280;71549;42.686;23.300;2023-08-30T06:42:23;93925.94;;;29.25;30.70
43217;BME280;71549;42.686;23.300;2023-08-30T06:44:25;93932.22;;;29.22;30.77
43217;BME280;71549;42.686;23.300;2023-08-30T06:46:25;93929.50;;;29.22;30.82
43217;BME280;71549;42.686;23.300;2023-08-30T06:48:26;93920.66;;;29.11;30.31
43217;BME280;71549;42.686;23.300;2023-08-30T06:50:26;93893.97;;;28.95;30.82
43217;BME280;71549;42.686;23.300;2023-08-30T06:52:27;93931.13;;;29.16;30.83
43217;BME280;71549;42.686;23.300;2023-08-30T06:54:27;93937.75;;;29.15;31.01
43217;BME280;71549;42.686;23.300;2023-08-30T06:56:30;93838.41;;;28.51;30.71
43217;BME280;71549;42.686;23.300;2023-08-30T06:58:30;93846.97;;;28.50;30.74
43217;BME280;71549;42.686;23.300;2023-08-30T07:00:31;93893.34;;;28.80;31.04
43217;BME280;71549;42.686;23.300;2023-08-30T07:02:36;93887.03;;;28.87;31.02
43217;BME280;71549;42.686;23.300;2023-08-30T07:04:37;93880.06;;;28.86;31.11
43217;BME280;71549;42.686;23.300;2023-08-30T07:06:37;93933.84;;;29.16;31.18
43217;BME280;71549;42.686;23.300;2023-08-30T07:08:38;93921.84;;;29.07;31.24
43217;BME280;71549;42.686;23.300;2023-08-30T07:10:38;93885.25;;;28.73;31.54
43217;BME280;71549;42.686;23.300;2023-08-30T07:14:42;93861.34;;;28.50;31.30
43217;BME280;71549;42.686;23.300;2023-08-30T07:16:43;93855.81;;;28.61;31.46
43217;BME280;71549;42.686;23.300;2023-08-30T07:18:44;93869.00;;;28.62;31.51
43217;BME280;71549;42.686;23.300;2023-08-30T07:20:45;93884.81;;;28.78;31.24
43217;BME280;71549;42.686;23.300;2023-08-30T07:22:47;93922.63;;;29.07;31.67
43217;BME280;71549;42.686;23.300;2023-08-30T07:24:49;93897.94;;;28.87;31.43
43217;BME280;71549;42.686;23.300;2023-08-30T07:26:50;93849.59;;;28.60;31.38
43217;BME280;71549;42.686;23.300;2023-08-30T07:28:51;93931.16;;;29.13;31.11
43217;BME280;71549;42.686;23.300;2023-08-30T07:30:51;93896.75;;;28.88;31.58
43217;BME280;71549;42.686;23.300;2023-08-30T07:32:54;93901.00;;;28.93;31.22
43217;BME280;71549;42.686;23.300;2023-08-30T07:34:54;93934.25;;;29.15;31.46
43217;BME280;71549;42.686;23.300;2023-08-30T07:36:55;93935.84;;;29.12;31.01
43217;BME280;71549;42.686;23.300;2023-08-30T07:38:56;93918.13;;;28.93;31.02
43217;BME280;71549;42.686;23.300;2023-08-30T07:40:56;93888.81;;;28.67;30.73
43217;BME280;71549;42.686;23.300;2023-08-30T07:42:57;93922.75;;;28.96;30.75
43217;BME280;71549;42.686;23.300;2023-08-30T07:44:58;93883.31;;;28.74;30.45
43217;BME280;71549;42.686;23.300;2023-08-30T07:46:58;93869.81;;;28.63;30.51
43217;BME280;71549;42.686;23.300;2023-08-30T07:48:59;93916.88;;;29.01;30.30
43217;BME280;71549;42.686;23.300;2023-08-30T07:50:59;93842.34;;;28.43;30.36
43217;BME280;71549;42.686;23.300;2023-08-30T07:52:59;93922.72;;;29.00;29.71
43217;BME280;71549;42.686;23.300;2023-08-30T07:55:00;93898.03;;;28.80;29.60
43217;BME280;71549;42.686;23.300;2023-08-30T07:57:00;93902.28;;;28.81;29.64
43217;BME280;71549;42.686;23.300;2023-08-30T07:59:01;93931.28;;;28.98;29.59
43217;BME280;71549;42.686;23.300;2023-08-30T08:01:01;93907.78;;;28.77;29.27
43217;BME280;71549;42.686;23.300;2023-08-30T08:03:04;93898.50;;;28.71;29.29
43217;BME280;71549;42.686;23.300;2023-08-30T08:05:07;93909.72;;;28.77;29.05
43217;BME280;71549;42.686;23.300;2023-08-30T08:07:09;93918.22;;;28.82;29.27
43217;BME280;71549;42.686;23.300;2023-08-30T08:09:09;93934.00;;;28.98;29.43
43217;BME280;71549;42.686;23.300;2023-08-30T08:11:14;93819.97;;;28.24;28.84
43217;BME280;71549;42.686;23.300;2023-08-30T08:13:16;93902.34;;;28.77;28.39
43217;BME280;71549;42.686;23.300;2023-08-30T08:15:17;93889.16;;;28.69;28.61
43217;BME280;71549;42.686;23.300;2023-08-30T08:17:17;93930.66;;;28.83;28.64
43217;BME280;71549;42.686;23.300;2023-08-30T08:19:21;93873.41;;;28.49;28.29
43217;BME280;71549;42.686;23.300;2023-08-30T08:21:22;93816.25;;;28.08;28.55
43217;BME280;71549;42.686;23.300;2023-08-30T08:23:22;93926.75;;;28.84;28.79
43217;BME280;71549;42.686;23.300;2023-08-30T08:25:22;93941.13;;;28.85;29.38
43217;BME280;71549;42.686;23.300;2023-08-30T08:27:26;93867.25;;;28.41;28.66
43217;BME280;71549;42.686;23.300;2023-08-30T08:29:27;93938.78;;;28.87;28.86
43217;BME280;71549;42.686;23.300;2023-08-30T08:31:28;93870.34;;;28.43;28.33
43217;BME280;71549;42.686;23.300;2023-08-30T08:33:29;93884.28;;;28.49;28.64
43217;BME280;71549;42.686;23.300;2023-08-30T08:35:29;93855.69;;;28.30;28.68
43217;BME280;71549;42.686;23.300;2023-08-30T08:37:31;93949.31;;;28.85;28.61
43217;BME280;71549;42.686;23.300;2023-08-30T08:39:33;93838.41;;;28.06;28.68
43217;BME280;71549;42.686;23.300;2023-08-30T08:41:44;93940.84;;;28.76;28.93
43217;BME280;71549;42.686;23.300;2023-08-30T08:43:44;93938.91;;;28.76;29.12
43217;BME280;71549;42.686;23.300;2023-08-30T08:45:47;93882.84;;;28.37;29.12
43217;BME280;71549;42.686;23.300;2023-08-30T08:47:49;93940.09;;;28.75;29.24
43217;BME280;71549;42.686;23.300;2023-08-30T08:49:50;93925.75;;;28.68;29.17
43217;BME280;71549;42.686;23.300;2023-08-30T08:51:51;93903.25;;;28.60;29.01
43217;BME280;71549;42.686;23.300;2023-08-30T08:53:51;93907.56;;;28.57;28.44
43217;BME280;71549;42.686;23.300;2023-08-30T08:55:53;93919.19;;;28.65;28.74
43217;BME280;71549;42.686;23.300;2023-08-30T08:57:54;93933.06;;;28.74;29.32
43217;BME280;71549;42.686;23.300;2023-08-30T08:59:56;93928.78;;;28.77;28.77
43217;BME280;71549;42.686;23.300;2023-08-30T09:01:57;93892.47;;;28.53;28.28
43217;BME280;71549;42.686;23.300;2023-08-30T09:03:57;93865.00;;;28.33;28.71
43217;BME280;71549;42.686;23.300;2023-08-30T09:05:58;93866.50;;;28.37;29.10
43217;BME280;71549;42.686;23.300;2023-08-30T09:08:00;93919.84;;;28.76;28.78
43217;BME280;71549;42.686;23.300;2023-08-30T09:10:02;93929.13;;;28.79;28.50
43217;BME280;71549;42.686;23.300;2023-08-30T09:12:03;93904.00;;;28.64;28.36
43217;BME280;71549;42.686;23.300;2023-08-30T09:14:03;93579.38;;;26.56;28.30
43217;BME280;71549;42.686;23.300;2023-08-30T09:16:16;93897.75;;;28.67;27.78
43217;BME280;71549;42.686;23.300;2023-08-30T09:18:18;93920.19;;;28.82;27.95
43217;BME280;71549;42.686;23.300;2023-08-30T09:20:20;93743.19;;;27.64;28.07
43217;BME280;71549;42.686;23.300;2023-08-30T09:22:20;93859.09;;;28.41;28.39
43217;BME280;71549;42.686;23.300;2023-08-30T09:24:21;93888.81;;;28.67;28.05
43217;BME280;71549;42.686;23.300;2023-08-30T09:26:22;93837.38;;;28.34;28.11
43217;BME280;71549;42.686;23.300;2023-08-30T09:28:22;93910.03;;;28.82;28.19
43217;BME280;71549;42.686;23.300;2023-08-30T09:30:23;93856.72;;;28.43;28.18
43217;BME280;71549;42.686;23.300;2023-08-30T09:32:26;93912.38;;;28.84;28.10
43217;BME280;71549;42.686;23.300;2023-08-30T09:34:26;93840.88;;;28.35;27.33
43217;BME280;71549;42.686;23.300;2023-08-30T09:36:36;93914.34;;;28.80;27.79
43217;BME280;71549;42.686;23.300;2023-08-30T09:38:37;93878.38;;;28.61;28.40
43217;BME280;71549;42.686;23.300;2023-08-30T09:40:42;93737.75;;;27.64;28.29
43217;BME280;71549;42.686;23.300;2023-08-30T09:42:43;93876.88;;;28.57;27.47
43217;BME280;71549;42.686;23.300;2023-08-30T09:44:43;93914.69;;;28.85;27.14
43217;BME280;71549;42.686;23.300;2023-08-30T09:46:54;93910.00;;;28.86;27.84
43217;BME280;71549;42.686;23.300;2023-08-30T09:48:55;93896.47;;;28.79;27.48
43217;BME280;71549;42.686;23.300;2023-08-30T09:50:57;93881.44;;;28.67;27.33
43217;BME280;71549;42.686;23.300;2023-08-30T09:53:00;93896.09;;;28.77;27.61
43217;BME280;71549;42.686;23.300;2023-08-30T09:55:03;93875.63;;;28.65;27.47
43217;BME280;71549;42.686;23.300;2023-08-30T09:57:04;93855.88;;;28.54;28.02
43217;BME280;71549;42.686;23.300;2023-08-30T09:59:05;93851.25;;;28.51;27.55
43217;BME280;71549;42.686;23.300;2023-08-30T10:01:05;93898.41;;;28.78;28.15
43217;BME280;71549;42.686;23.300;2023-08-30T10:03:07;93838.50;;;28.40;27.82
43217;BME280;71549;42.686;23.300;2023-08-30T10:05:11;93869.81;;;28.63;28.13
43217;BME280;71549;42.686;23.300;2023-08-30T10:07:13;93852.03;;;28.51;27.92
43217;BME280;71549;42.686;23.300;2023-08-30T10:09:15;93892.13;;;28.85;27.63
43217;BME280;71549;42.686;23.300;2023-08-30T10:11:21;93871.66;;;28.70;27.85
43217;BME280;71549;42.686;23.300;2023-08-30T10:13:41;93890.94;;;28.86;27.72
43217;BME280;71549;42.686;23.300;2023-08-30T10:15:49;93864.22;;;28.77;27.93
43217;BME280;71549;42.686;23.300;2023-08-30T10:18:04;93781.22;;;28.13;28.38
43217;BME280;71549;42.686;23.300;2023-08-30T10:20:06;93852.22;;;28.71;27.44
43217;BME280;71549;42.686;23.300;2023-08-30T10:22:07;93856.88;;;28.71;28.31
43217;BME280;71549;42.686;23.300;2023-08-30T10:24:18;93860.28;;;28.78;27.99
43217;BME280;71549;42.686;23.300;2023-08-30T10:26:19;93856.47;;;28.72;27.86
43217;BME280;71549;42.686;23.300;2023-08-30T10:28:32;93805.41;;;28.42;28.00
43217;BME280;71549;42.686;23.300;2023-08-30T10:30:35;93787.31;;;28.28;27.77
43217;BME280;71549;42.686;23.300;2023-08-30T10:32:42;93880.38;;;28.92;27.67
43217;BME280;71549;42.686;23.300;2023-08-30T10:34:47;93874.19;;;28.91;27.58
43217;BME280;71549;42.686;23.300;2023-08-30T10:37:10;93875.72;;;28.92;27.59
43217;BME280;71549;42.686;23.300;2023-08-30T10:39:14;93695.34;;;27.71;27.50
43217;BME280;71549;42.686;23.300;2023-08-30T10:41:20;93842.50;;;28.70;27.39
43217;BME280;71549;42.686;23.300;2023-08-30T10:43:34;93879.19;;;28.93;27.18
43217;BME280;71549;42.686;23.300;2023-08-30T10:45:35;93843.97;;;28.75;26.98
43217;BME280;71549;42.686;23.300;2023-08-30T10:47:37;93823.09;;;28.64;27.15
43217;BME280;71549;42.686;23.300;2023-08-30T10:49:42;93833.88;;;28.75;27.18
43217;BME280;71549;42.686;23.300;2023-08-30T10:51:44;93865.19;;;28.94;26.73